Time;durP1;ratioP1;P1;durP2;ratioP2;P2;SDS_P1;SDS_P2;PMS_P1;PMS_P2;Temp;Humidity;BMP_temperature;BMP_pressure;BME280_temperature;BME280_humidity;BME280_pressure;Samples;Min_cycle;Max_cycle;Signal;HPM_P1;HPM_P2
2022/03/30 00:00:13;;;;;;;25.58;10.73;;;13.20;79.90;;;;;;5113518;28;20058;-69
2022/03/30 00:02:39;;;;;;;23.02;9.95;;;13.20;79.70;;;;;;5113218;28;20032;-69
2022/03/30 00:05:05;;;;;;;25.25;10.63;;;13.20;79.60;;;;;;5094852;28;20046;-69
2022/03/30 00:07:32;;;;;;;20.25;10.27;;;13.30;79.80;;;;;;5112854;28;20098;-70
2022/03/30 00:10:02;;;;;;;24.05;10.45;;;;;;;;;;5113261;28;20508;-69
2022/03/30 00:12:28;;;;;;;19.73;10.10;;;13.30;78.90;;;;;;5112999;28;20176;-69
2022/03/30 00:14:54;;;;;;;21.15;10.57;;;13.20;79.00;;;;;;5113209;28;20107;-69
2022/03/30 00:17:19;;;;;;;22.42;10.20;;;13.20;78.70;;;;;;5113155;28;20395;-71
2022/03/30 00:19:46;;;;;;;23.38;10.63;;;13.20;78.70;;;;;;5113356;28;20028;-71
2022/03/30 00:22:12;;;;;;;23.30;9.88;;;;;;;;;;5112972;28;20031;-69
2022/03/30 00:24:44;;;;;;;20.10;10.48;;;13.20;94.90;;;;;;5112759;28;20103;-70
2022/03/30 00:27:13;;;;;;;24.02;10.23;;;13.20;82.30;;;;;;5113049;28;20089;-71
2022/03/30 00:29:39;;;;;;;23.83;9.57;;;;;;;;;;5112959;28;20428;-69
2022/03/30 00:32:06;;;;;;;24.00;9.10;;;;;;;;;;5112873;28;20504;-71
2022/03/30 00:34:32;;;;;;;22.65;9.43;;;;;;;;;;5113181;28;20031;-71
2022/03/30 00:36:57;;;;;;;19.58;10.25;;;13.20;86.40;;;;;;5113026;28;20036;-69
2022/03/30 00:39:23;;;;;;;16.60;9.85;;;13.10;84.30;;;;;;5116759;28;20047;-71
2022/03/30 00:41:49;;;;;;;19.75;10.25;;;13.10;81.30;;;;;;5116642;28;20107;-70
2022/03/30 00:44:15;;;;;;;21.88;9.25;;;;;;;;;;5117041;28;20046;-71
2022/03/30 00:46:44;;;;;;;20.02;9.30;;;13.10;89.90;;;;;;5116745;28;20036;-69
2022/03/30 00:49:11;;;;;;;21.58;9.98;;;12.90;79.40;;;;;;5116559;28;20047;-71
2022/03/30 00:51:37;;;;;;;19.92;10.50;;;13.10;90.00;;;;;;5116601;28;20392;-69
2022/03/30 00:54:03;;;;;;;20.48;9.82;;;;;;;;;;5116461;28;20036;-69
2022/03/30 00:56:32;;;;;;;23.90;10.13;;;12.80;79.00;;;;;;5116714;28;20038;-71
2022/03/30 00:59:05;;;;;;;19.10;9.90;;;12.80;79.30;;;;;;5113936;28;20042;-69
2022/03/30 01:01:30;;;;;;;27.02;9.57;;;12.80;79.80;;;;;;5113840;28;20510;-69
2022/03/30 01:03:56;;;;;;;23.60;9.32;;;;;;;;;;5112474;28;20032;-71
2022/03/30 01:06:22;;;;;;;21.15;9.88;;;12.80;78.10;;;;;;5116171;28;20122;-71
2022/03/30 01:08:48;;;;;;;17.23;9.20;;;12.80;78.20;;;;;;5116490;28;20120;-69
2022/03/30 01:11:15;;;;;;;26.17;10.90;;;12.80;77.90;;;;;;5116433;28;20093;-69
2022/03/30 01:13:41;;;;;;;27.40;10.98;;;12.80;78.40;;;;;;5116059;28;20031;-71
2022/03/30 01:16:07;;;;;;;26.35;12.45;;;12.70;78.80;;;;;;5116110;28;20122;-71
2022/03/30 01:18:40;;;;;;;24.80;9.57;;;12.60;79.70;;;;;;5116108;28;20131;-69
2022/03/30 01:21:07;;;;;;;25.95;11.18;;;12.50;80.20;;;;;;5115443;28;20135;-69
2022/03/30 01:23:34;;;;;;;19.50;10.45;;;12.40;80.50;;;;;;5116139;28;20040;-71
2022/03/30 01:26:00;;;;;;;20.33;10.45;;;;;;;;;;5115938;28;20110;-69
2022/03/30 01:28:28;;;;;;;22.85;10.65;;;12.30;81.60;;;;;;5115771;28;20024;-69
2022/03/30 01:33:45;;;;;;;23.02;9.90;;;12.30;81.30;;;;;;5116013;28;20089;-68
2022/03/30 01:36:11;;;;;;;23.58;10.80;;;12.40;80.20;;;;;;5115805;28;20031;-72
2022/03/30 01:38:37;;;;;;;28.85;11.10;;;12.30;81.20;;;;;;5115973;28;20158;-71
2022/03/30 01:41:03;;;;;;;24.40;11.27;;;12.30;81.20;;;;;;5115796;28;20056;-69
2022/03/30 01:43:28;;;;;;;30.83;11.43;;;12.30;81.80;;;;;;5115727;28;20043;-69
2022/03/30 01:45:57;;;;;;;22.92;9.75;;;12.30;81.40;;;;;;5115260;28;20028;-69
2022/03/30 01:48:23;;;;;;;21.83;11.02;;;12.30;81.30;;;;;;5115483;28;20036;-70
2022/03/30 01:50:48;;;;;;;20.23;9.98;;;12.30;81.30;;;;;;5114757;28;20100;-71
2022/03/30 01:53:14;;;;;;;21.85;11.52;;;12.30;81.40;;;;;;5115560;28;20035;-69
2022/03/30 01:55:40;;;;;;;20.17;10.60;;;12.30;81.70;;;;;;5115397;28;20039;-68
2022/03/30 01:58:06;;;;;;;21.50;10.35;;;12.30;81.80;;;;;;5115225;28;20038;-69
2022/03/30 02:00:32;;;;;;;19.25;10.50;;;12.30;82.30;;;;;;5115283;28;20127;-69
2022/03/30 02:02:58;;;;;;;26.35;10.65;;;12.30;81.50;;;;;;5115406;28;20035;-68
2022/03/30 02:05:24;;;;;;;34.80;11.27;;;12.30;80.90;;;;;;5115496;28;20043;-69
2022/03/30 02:07:50;;;;;;;23.05;10.30;;;12.30;81.30;;;;;;5115590;28;20036;-71
2022/03/30 02:10:17;;;;;;;26.17;11.73;;;12.40;81.00;;;;;;5115161;28;20051;-71
2022/03/30 02:12:43;;;;;;;22.95;11.18;;;12.30;81.00;;;;;;5114996;28;20065;-71
2022/03/30 02:15:10;;;;;;;29.98;10.10;;;12.30;81.10;;;;;;5114914;28;20036;-69
2022/03/30 02:17:38;;;;;;;24.50;14.00;;;12.30;81.00;;;;;;5115305;28;20165;-69
2022/03/30 02:20:05;;;;;;;19.90;11.05;;;12.30;81.10;;;;;;5115055;28;20396;-69
2022/03/30 02:22:31;;;;;;;20.77;10.35;;;12.30;81.30;;;;;;5115221;28;20439;-71
2022/03/30 02:24:56;;;;;;;24.58;9.65;;;12.30;81.50;;;;;;5114906;28;20059;-69
2022/03/30 02:27:23;;;;;;;24.42;11.30;;;12.30;81.30;;;;;;5114667;28;20480;-69
2022/03/30 02:29:51;;;;;;;23.10;10.73;;;12.30;81.30;;;;;;5114696;28;20395;-70
2022/03/30 02:32:17;;;;;;;20.20;10.73;;;12.30;81.40;;;;;;5114582;28;20545;-69
2022/03/30 02:34:43;;;;;;;25.77;9.70;;;12.30;81.40;;;;;;5114629;28;20036;-68
2022/03/30 02:37:10;;;;;;;20.00;9.55;;;12.30;81.20;;;;;;5114855;28;20103;-70
2022/03/30 02:39:37;;;;;;;22.27;9.35;;;12.30;80.90;;;;;;5114828;28;20069;-69
2022/03/30 02:42:03;;;;;;;21.98;8.90;;;12.40;80.60;;;;;;5114590;28;20036;-70
2022/03/30 02:44:28;;;;;;;20.05;9.45;;;12.40;80.30;;;;;;5114384;28;20122;-71
2022/03/30 02:46:55;;;;;;;25.23;9.82;;;12.40;80.50;;;;;;5114637;28;20032;-69
2022/03/30 02:49:20;;;;;;;21.75;9.18;;;12.40;80.40;;;;;;5114264;28;20044;-70
2022/03/30 02:51:46;;;;;;;20.17;8.73;;;12.30;80.80;;;;;;5114589;28;20114;-69
2022/03/30 02:54:12;;;;;;;20.95;8.52;;;12.40;80.60;;;;;;5114164;28;20035;-71
2022/03/30 02:56:38;;;;;;;23.38;9.48;;;12.40;79.80;;;;;;5114566;28;20505;-71
2022/03/30 02:59:03;;;;;;;20.70;6.88;;;12.40;79.40;;;;;;5114229;28;20043;-69
2022/03/30 03:01:29;;;;;;;15.25;8.73;;;12.50;85.70;;;;;;5114345;28;20030;-70
2022/03/30 03:03:55;;;;;;;22.33;9.02;;;12.40;86.60;;;;;;5114250;28;20054;-70
2022/03/30 03:06:20;;;;;;;17.98;8.98;;;12.40;87.30;;;;;;5114149;28;20480;-69
2022/03/30 03:08:46;;;;;;;17.23;8.35;;;12.30;87.00;;;;;;5114134;28;20040;-69
2022/03/30 03:11:12;;;;;;;15.23;6.95;;;12.30;87.50;;;;;;5113977;28;20053;-69
2022/03/30 03:13:37;;;;;;;24.67;7.15;;;12.30;81.40;;;;;;5113734;28;20059;-70
2022/03/30 03:16:03;;;;;;;19.25;8.05;;;12.30;79.80;;;;;;5114095;28;20036;-71
2022/03/30 03:18:29;;;;;;;22.73;8.00;;;12.30;90.30;;;;;;5114061;28;20035;-71
2022/03/30 03:20:55;;;;;;;24.17;8.45;;;12.30;89.50;;;;;;5113958;28;20115;-69
2022/03/30 03:23:20;;;;;;;16.08;8.43;;;12.30;90.80;;;;;;5114073;28;20043;-69
2022/03/30 03:25:47;;;;;;;19.15;8.05;;;;;;;;;;5113704;28;20376;-69
2022/03/30 03:28:14;;;;;;;25.30;7.78;;;12.20;94.40;;;;;;5113917;28;20085;-71
2022/03/30 03:30:40;;;;;;;21.55;10.20;;;12.20;91.80;;;;;;5113719;28;20055;-70
2022/03/30 03:33:07;;;;;;;26.02;8.73;;;12.30;92.20;;;;;;5113581;28;20047;-71
2022/03/30 03:35:33;;;;;;;21.20;8.30;;;12.30;90.50;;;;;;5113635;28;20027;-71
2022/03/30 03:38:00;;;;;;;20.45;8.55;;;12.30;90.20;;;;;;5113615;28;20448;-70
2022/03/30 03:40:27;;;;;;;25.58;7.28;;;12.40;90.30;;;;;;5113606;28;20036;-71
2022/03/30 03:42:53;;;;;;;21.70;7.28;;;12.30;90.00;;;;;;5113625;28;20152;-69
2022/03/30 03:45:19;;;;;;;20.42;9.00;;;12.30;89.90;;;;;;5113519;28;20368;-69
2022/03/30 03:47:47;;;;;;;13.55;6.97;;;12.30;90.10;;;;;;5113181;28;20031;-70
2022/03/30 03:50:13;;;;;;;24.45;7.80;;;12.30;89.80;;;;;;5113205;28;20135;-71
2022/03/30 03:52:39;;;;;;;24.92;7.57;;;12.40;91.00;;;;;;5113231;28;20099;-71
2022/03/30 03:55:05;;;;;;;23.10;7.70;;;12.40;90.60;;;;;;5113346;28;20472;-69
2022/03/30 03:57:33;;;;;;;18.38;6.90;;;12.40;92.30;;;;;;5113218;28;20040;-69
2022/03/30 03:59:59;;;;;;;14.00;6.75;;;12.50;94.60;;;;;;5113373;28;20088;-71
2022/03/30 04:02:25;;;;;;;14.35;5.95;;;12.50;95.80;;;;;;5113336;28;20418;-69
2022/03/30 04:04:51;;;;;;;20.67;7.68;;;12.50;91.50;;;;;;5113450;28;20031;-71
2022/03/30 04:07:17;;;;;;;23.25;6.75;;;;;;;;;;5113342;28;20078;-69
2022/03/30 04:09:43;;;;;;;24.55;8.40;;;;;;;;;;5112919;28;20035;-70
2022/03/30 04:12:08;;;;;;;23.08;8.02;;;12.40;88.00;;;;;;5112719;28;20023;-70
2022/03/30 04:14:34;;;;;;;24.05;8.45;;;12.40;88.50;;;;;;5113403;28;20039;-71
2022/03/30 04:17:00;;;;;;;16.90;7.50;;;12.40;87.70;;;;;;5113221;28;20090;-71
2022/03/30 04:19:26;;;;;;;15.68;7.80;;;12.40;86.70;;;;;;5113021;28;20035;-68
2022/03/30 04:21:52;;;;;;;21.65;9.23;;;12.40;86.20;;;;;;5112927;28;20039;-71
2022/03/30 04:24:17;;;;;;;18.70;6.75;;;12.30;85.90;;;;;;5112994;28;20032;-69
2022/03/30 04:26:43;;;;;;;21.42;9.70;;;12.30;85.10;;;;;;5113032;28;20038;-69
2022/03/30 04:29:09;;;;;;;17.88;8.02;;;12.30;85.20;;;;;;5113173;28;20105;-69
2022/03/30 04:31:35;;;;;;;17.23;6.90;;;12.30;85.20;;;;;;5112844;28;20070;-71
2022/03/30 04:34:01;;;;;;;23.50;9.48;;;12.30;85.60;;;;;;5112480;28;20059;-71
2022/03/30 04:36:27;;;;;;;18.02;7.10;;;12.30;86.20;;;;;;5113329;28;20064;-69
2022/03/30 04:38:53;;;;;;;19.27;8.05;;;12.30;85.40;;;;;;5113066;28;20055;-71
2022/03/30 04:41:18;;;;;;;15.65;6.93;;;12.30;85.50;;;;;;5113009;28;20031;-71
2022/03/30 04:43:44;;;;;;;22.88;8.18;;;12.30;85.80;;;;;;5113127;28;20034;-69
2022/03/30 04:46:11;;;;;;;22.73;8.43;;;12.30;86.30;;;;;;5112773;28;20099;-71
2022/03/30 04:48:37;;;;;;;21.60;8.07;;;12.30;85.90;;;;;;5112846;28;20488;-71
2022/03/30 04:51:03;;;;;;;24.45;7.40;;;12.40;85.70;;;;;;5112780;28;20077;-68
2022/03/30 04:53:29;;;;;;;17.33;8.05;;;12.40;86.00;;;;;;5112729;28;20030;-68
2022/03/30 04:55:55;;;;;;;22.40;10.23;;;12.40;85.90;;;;;;5112406;28;20036;-71
2022/03/30 04:58:20;;;;;;;19.60;8.52;;;12.40;85.50;;;;;;5112981;28;20369;-71
2022/03/30 05:00:46;;;;;;;19.77;7.68;;;12.40;85.90;;;;;;5112795;28;20078;-69
2022/03/30 05:03:12;;;;;;;18.80;9.07;;;12.40;85.60;;;;;;5112905;28;20039;-69
2022/03/30 05:05:38;;;;;;;15.60;7.65;;;12.40;85.70;;;;;;5112750;28;20071;-69
2022/03/30 05:08:04;;;;;;;18.92;6.68;;;12.40;85.70;;;;;;5112806;28;20036;-71
2022/03/30 05:10:29;;;;;;;21.60;6.68;;;12.40;85.60;;;;;;5112744;28;20047;-71
2022/03/30 05:12:55;;;;;;;21.10;6.85;;;12.40;86.30;;;;;;5112502;28;20032;-70
2022/03/30 05:15:23;;;;;;;21.13;7.07;;;12.40;86.00;;;;;;5112671;28;20031;-69
2022/03/30 05:17:49;;;;;;;15.18;7.00;;;12.40;86.00;;;;;;5112520;28;20027;-69
2022/03/30 05:20:16;;;;;;;23.05;7.25;;;12.40;86.50;;;;;;5112495;28;20051;-68
2022/03/30 05:22:45;;;;;;;28.98;7.55;;;12.40;85.70;;;;;;5112558;28;20107;-68
2022/03/30 05:25:12;;;;;;;28.17;8.98;;;12.40;86.70;;;;;;5115178;28;20027;-68
2022/03/30 05:27:40;;;;;;;25.95;7.78;;;12.40;87.30;;;;;;5115741;28;20541;-68
2022/03/30 05:30:07;;;;;;;27.85;8.82;;;12.40;87.50;;;;;;5116008;28;20040;-69
2022/03/30 05:32:34;;;;;;;30.50;7.80;;;12.40;88.30;;;;;;5115922;28;20534;-68
2022/03/30 05:35:00;;;;;;;28.42;8.40;;;12.40;89.30;;;;;;5115574;28;20062;-70
2022/03/30 05:37:26;;;;;;;21.38;7.80;;;12.40;90.70;;;;;;5115881;28;20046;-68
2022/03/30 05:39:52;;;;;;;21.58;7.30;;;12.50;90.80;;;;;;5115647;28;20093;-69
2022/03/30 05:42:20;;;;;;;19.73;7.05;;;12.40;90.90;;;;;;5116138;28;20391;-69
2022/03/30 05:44:46;;;;;;;21.33;7.45;;;12.40;91.00;;;;;;5115755;28;20576;-69
2022/03/30 05:47:11;;;;;;;25.83;9.02;;;12.40;85.40;;;;;;5115352;28;20127;-69
2022/03/30 05:49:38;;;;;;;19.60;8.57;;;12.40;84.20;;;;;;5115458;28;20492;-69
2022/03/30 05:52:05;;;;;;;24.90;8.65;;;12.50;83.10;;;;;;5114894;28;20088;-70
2022/03/30 05:54:31;;;;;;;21.95;8.15;;;12.50;82.30;;;;;;5115760;28;20107;-70
2022/03/30 05:57:00;;;;;;;32.08;8.27;;;;;;;;;;5115580;28;20111;-71
2022/03/30 05:59:29;;;;;;;22.20;7.85;;;12.50;92.60;;;;;;5115525;28;20036;-71
2022/03/30 06:01:56;;;;;;;24.80;8.82;;;12.50;92.20;;;;;;5114376;28;20035;-74
2022/03/30 06:04:22;;;;;;;24.55;8.32;;;12.40;93.20;;;;;;5114766;28;20069;-73
2022/03/30 06:06:50;;;;;;;22.27;9.05;;;12.30;90.10;;;;;;5114973;28;20032;-73
2022/03/30 06:09:16;;;;;;;33.72;9.35;;;12.30;90.00;;;;;;5112705;28;20411;-70
2022/03/30 06:11:42;;;;;;;22.80;8.88;;;12.30;89.90;;;;;;5114507;28;20035;-70
2022/03/30 06:14:08;;;;;;;27.55;9.55;;;12.30;90.10;;;;;;5113989;28;20032;-69
2022/03/30 06:16:34;;;;;;;29.20;9.95;;;12.30;90.20;;;;;;5114279;28;20110;-72
2022/03/30 06:19:00;;;;;;;24.60;9.98;;;12.30;90.30;;;;;;5114565;28;20031;-72
2022/03/30 06:21:26;;;;;;;22.20;8.48;;;12.30;90.30;;;;;;5115105;28;20044;-73
2022/03/30 06:23:52;;;;;;;24.38;8.18;;;12.30;90.10;;;;;;5114811;28;20035;-71
2022/03/30 06:26:17;;;;;;;29.42;11.65;;;12.30;90.40;;;;;;5114726;28;20036;-73
2022/03/30 06:28:43;;;;;;;35.80;9.98;;;12.30;90.50;;;;;;5115143;28;20036;-74
2022/03/30 06:31:12;;;;;;;34.20;10.10;;;12.30;90.80;;;;;;5112302;28;20058;-74
2022/03/30 06:33:38;;;;;;;36.08;10.38;;;12.30;90.70;;;;;;5114606;28;20047;-71
2022/03/30 06:36:05;;;;;;;30.50;9.52;;;12.30;90.90;;;;;;5113269;28;20054;-74
2022/03/30 06:38:31;;;;;;;40.20;10.25;;;12.30;91.70;;;;;;5085210;28;20036;-77
2022/03/30 06:40:57;;;;;;;28.33;9.88;;;12.30;92.00;;;;;;5113869;28;20107;-77
2022/03/30 06:43:22;;;;;;;24.45;10.23;;;12.30;92.10;;;;;;5113833;28;20124;-71
2022/03/30 06:45:49;;;;;;;25.65;11.45;;;12.60;97.30;;;;;;5113894;28;20031;-72
2022/03/30 06:48:14;;;;;;;31.90;10.88;;;12.30;92.40;;;;;;5113573;28;20043;-69
2022/03/30 06:50:40;;;;;;;35.58;11.70;;;12.30;92.60;;;;;;5113595;28;20051;-68
2022/03/30 06:53:07;;;;;;;28.70;10.85;;;12.30;93.10;;;;;;5112709;28;20039;-66
2022/03/30 06:55:33;;;;;;;26.05;10.82;;;;;;;;;;5112907;28;20088;-68
2022/03/30 06:57:59;;;;;;;21.98;10.63;;;12.30;96.30;;;;;;5112552;28;20064;-65
2022/03/30 07:00:24;;;;;;;27.70;10.80;;;12.40;94.40;;;;;;5113583;28;20043;-66
2022/03/30 07:02:52;;;;;;;35.15;11.23;;;12.50;93.80;;;;;;5113697;28;20114;-68
2022/03/30 07:05:18;;;;;;;26.50;9.55;;;12.50;93.90;;;;;;5113728;28;20042;-65
2022/03/30 07:10:31;;;;;;;20.48;9.43;;;12.50;93.40;;;;;;5093403;28;20144;-68
2022/03/30 07:12:57;;;;;;;27.65;9.73;;;12.50;91.90;;;;;;5093373;28;20112;-70
2022/03/30 07:15:23;;;;;;;29.65;10.25;;;12.50;92.30;;;;;;5093337;28;20462;-69
2022/03/30 07:17:51;;;;;;;21.80;9.38;;;12.50;92.70;;;;;;5092817;28;20034;-72
2022/03/30 07:20:18;;;;;;;33.90;9.63;;;12.40;92.40;;;;;;5092811;28;20077;-71
2022/03/30 07:22:45;;;;;;;32.70;11.52;;;12.40;91.90;;;;;;5092660;28;20108;-72
2022/03/30 07:25:11;;;;;;;36.33;9.57;;;12.40;92.50;;;;;;5109725;28;20039;-72
2022/03/30 07:27:42;;;;;;;31.33;10.48;;;12.40;93.30;;;;;;5112600;28;20435;-72
2022/03/30 07:30:09;;;;;;;25.17;9.70;;;12.40;92.60;;;;;;5111221;28;20039;-69
2022/03/30 07:32:41;;;;;;;30.95;9.60;;;12.40;92.50;;;;;;5109993;28;20040;-69
2022/03/30 07:35:09;;;;;;;28.13;8.27;;;12.40;92.10;;;;;;5111797;28;20092;-69
2022/03/30 07:37:36;;;;;;;26.58;8.32;;;12.50;91.60;;;;;;5113404;28;20049;-69
2022/03/30 07:40:03;;;;;;;20.92;9.88;;;12.50;90.90;;;;;;5113621;28;20035;-69
2022/03/30 07:42:30;;;;;;;31.40;9.27;;;12.50;90.90;;;;;;5113354;28;20294;-69
2022/03/30 07:44:55;;;;;;;25.38;9.77;;;12.50;91.10;;;;;;5113673;28;20040;-69
2022/03/30 07:47:21;;;;;;;30.02;8.68;;;12.50;91.10;;;;;;5112583;28;20491;-69
2022/03/30 07:49:49;;;;;;;29.00;9.98;;;12.50;91.20;;;;;;5113174;28;20035;-68
2022/03/30 07:52:15;;;;;;;35.30;8.93;;;12.50;91.30;;;;;;5113522;28;20057;-68
2022/03/30 07:54:42;;;;;;;36.92;10.32;;;12.50;91.00;;;;;;5113294;28;20071;-68
2022/03/30 07:57:09;;;;;;;30.45;9.27;;;12.50;91.30;;;;;;5113436;28;20372;-67
2022/03/30 07:59:34;;;;;;;32.28;9.45;;;12.50;91.30;;;;;;5113137;28;20044;-68
2022/03/30 08:02:01;;;;;;;22.50;8.82;;;12.50;91.60;;;;;;5113357;28;20036;-68
2022/03/30 08:04:26;;;;;;;30.58;8.35;;;12.50;91.50;;;;;;5113315;28;20035;-67
2022/03/30 08:06:52;;;;;;;25.77;9.10;;;12.50;91.50;;;;;;5112628;28;20040;-67
2022/03/30 08:09:19;;;;;;;22.65;9.68;;;12.60;91.90;;;;;;5112986;28;20047;-68
2022/03/30 08:11:45;;;;;;;25.63;9.48;;;12.50;93.20;;;;;;5112669;28;20044;-68
2022/03/30 08:14:11;;;;;;;35.15;10.30;;;12.50;92.00;;;;;;5113397;28;20111;-67
2022/03/30 08:16:39;;;;;;;31.55;9.75;;;12.50;92.10;;;;;;5113453;28;20044;-68
2022/03/30 08:19:05;;;;;;;30.02;10.15;;;12.50;92.00;;;;;;5112948;28;20027;-67
2022/03/30 08:24:15;;;;;;;30.20;9.23;;;12.50;87.00;;;;;;5113861;28;20553;-72
2022/03/30 08:26:41;;;;;;;26.10;9.82;;;12.60;87.90;;;;;;5113511;28;20028;-68
2022/03/30 08:29:08;;;;;;;27.15;11.15;;;12.60;86.60;;;;;;5113345;28;20463;-67
2022/03/30 08:31:34;;;;;;;30.20;10.63;;;12.60;85.70;;;;;;5113197;28;20057;-68
2022/03/30 08:34:00;;;;;;;27.42;9.85;;;12.70;84.80;;;;;;5113090;28;20507;-67
2022/03/30 08:36:29;;;;;;;28.88;11.25;;;12.70;83.20;;;;;;5113339;28;20028;-67
2022/03/30 08:38:59;;;;;;;33.55;13.52;;;12.70;82.50;;;;;;5113627;28;20388;-67
2022/03/30 08:41:25;;;;;;;23.63;11.07;;;12.70;80.60;;;;;;5113358;28;20040;-67
2022/03/30 08:43:51;;;;;;;25.13;10.77;;;12.80;80.50;;;;;;5113373;28;20104;-67
2022/03/30 08:46:17;;;;;;;23.63;11.95;;;12.90;83.60;;;;;;5113233;28;20043;-67
2022/03/30 08:48:42;;;;;;;23.10;11.70;;;12.90;82.90;;;;;;5113175;28;20380;-71
2022/03/30 08:51:10;;;;;;;20.88;10.52;;;13.00;82.00;;;;;;5113061;28;20491;-73
2022/03/30 08:53:37;;;;;;;31.00;11.85;;;;;;;;;;5113119;28;20043;-68
2022/03/30 08:56:03;;;;;;;22.27;12.15;;;;;;;;;;5113213;28;20024;-67
2022/03/30 08:58:29;;;;;;;25.35;10.27;;;;;;;;;;5114088;28;20442;-67
2022/03/30 09:01:06;;;;;;;28.88;10.93;;;;;;;;;;5116738;28;20419;-67
2022/03/30 09:03:32;;;;;;;27.20;9.80;;;;;;;;;;5116915;28;20035;-67
2022/03/30 09:05:58;;;;;;;24.52;10.68;;;;;;;;;;5116781;28;20110;-68
2022/03/30 09:08:27;;;;;;;20.90;10.93;;;13.20;92.20;;;;;;5117016;28;20114;-67
2022/03/30 09:10:55;;;;;;;24.75;11.13;;;13.30;91.50;;;;;;5116519;28;20066;-67
2022/03/30 09:13:21;;;;;;;26.13;10.52;;;13.30;91.60;;;;;;5116696;28;20032;-67
2022/03/30 09:15:49;;;;;;;28.27;10.70;;;13.30;91.70;;;;;;5117042;28;20391;-67
2022/03/30 09:18:16;;;;;;;25.27;11.05;;;13.30;91.60;;;;;;5116833;28;20541;-68
2022/03/30 09:20:45;;;;;;;35.40;11.05;;;13.30;91.70;;;;;;5116802;28;20084;-67
2022/03/30 09:23:14;;;;;;;30.70;11.35;;;13.30;91.40;;;;;;5116576;28;20044;-67
2022/03/30 09:25:47;;;;;;;29.27;10.98;;;13.30;91.30;;;;;;5116661;28;20036;-67
2022/03/30 09:28:19;;;;;;;35.72;12.65;;;13.30;91.30;;;;;;5116723;28;20020;-67
2022/03/30 09:30:48;;;;;;;26.07;13.33;;;13.40;91.30;;;;;;5116471;28;20434;-68
2022/03/30 09:33:18;;;;;;;31.77;12.63;;;13.40;91.70;;;;;;5116451;28;20403;-67
2022/03/30 09:35:45;;;;;;;23.40;12.80;;;;;;;;;;5116125;28;20076;-68
2022/03/30 09:38:13;;;;;;;31.10;11.77;;;;;;;;;;5116443;28;20388;-68
2022/03/30 09:40:44;;;;;;;27.75;10.77;;;;;;;;;;5116095;28;20127;-67
2022/03/30 09:43:12;;;;;;;26.50;11.00;;;13.50;95.30;;;;;;5116046;28;20114;-67
2022/03/30 09:45:38;;;;;;;25.65;10.15;;;13.50;93.30;;;;;;5116065;28;20055;-67
2022/03/30 09:48:31;;;;;;;27.40;11.90;;;13.50;93.80;;;;;;5115979;28;20476;-67
2022/03/30 09:50:58;;;;;;;32.85;13.02;;;13.50;92.40;;;;;;5112765;28;20050;-67
2022/03/30 09:53:27;;;;;;;25.02;10.95;;;13.50;93.50;;;;;;5116100;28;20372;-67
2022/03/30 09:56:14;;;;;;;34.05;14.00;;;;;;;;;;5115956;28;20039;-67
2022/03/30 09:58:40;;;;;;;35.55;14.00;;;;;;;;;;5115782;28;20028;-67
2022/03/30 10:01:23;;;;;;;30.13;12.70;;;13.50;97.00;;;;;;5115679;28;20036;-71
2022/03/30 10:03:59;;;;;;;22.02;10.52;;;13.60;91.20;;;;;;5115672;28;20035;-67
2022/03/30 10:06:33;;;;;;;30.27;13.23;;;13.60;92.40;;;;;;5115808;28;20036;-67
2022/03/30 10:08:59;;;;;;;29.00;11.82;;;;;;;;;;5116021;28;20028;-67
2022/03/30 10:11:27;;;;;;;29.98;12.02;;;13.70;93.40;;;;;;5114900;28;20035;-67
2022/03/30 10:13:59;;;;;;;30.35;11.77;;;13.70;91.30;;;;;;5115431;28;20116;-68
2022/03/30 10:16:27;;;;;;;39.58;13.63;;;13.70;91.60;;;;;;5115566;28;20026;-68
2022/03/30 10:18:53;;;;;;;34.30;11.38;;;13.70;92.20;;;;;;5115595;28;20039;-68
2022/03/30 10:21:36;;;;;;;36.60;12.45;;;13.70;91.70;;;;;;5115633;28;20027;-68
2022/03/30 10:24:23;;;;;;;30.67;13.50;;;13.70;91.30;;;;;;5115148;28;20030;-68
2022/03/30 10:27:00;;;;;;;30.98;12.07;;;13.80;91.50;;;;;;5115541;28;20077;-68
2022/03/30 10:29:29;;;;;;;30.08;12.48;;;13.70;91.60;;;;;;5115010;28;20043;-68
2022/03/30 10:32:09;;;;;;;28.20;11.00;;;;;;;;;;5114576;28;20475;-67
2022/03/30 10:34:42;;;;;;;23.02;10.48;;;13.80;94.10;;;;;;5114875;28;20036;-67
2022/03/30 10:37:09;;;;;;;26.55;11.82;;;;;;;;;;5115973;28;20031;-66
2022/03/30 10:39:52;;;;;;;26.63;10.30;;;13.80;95.70;;;;;;5096925;28;20032;-68
2022/03/30 10:42:18;;;;;;;26.75;8.18;;;;;;;;;;5114598;28;20040;-68
2022/03/30 10:44:49;;;;;;;19.77;7.40;;;;;;;;;;5114710;28;20035;-68
2022/03/30 10:47:23;;;;;;;19.33;7.38;;;;;;;;;;5114706;28;20039;-68
2022/03/30 10:50:00;;;;;;;25.35;9.73;;;13.90;98.80;;;;;;5114808;28;20047;-68
2022/03/30 10:52:46;;;;;;;26.13;11.65;;;14.10;90.80;;;;;;5114522;28;20028;-68
2022/03/30 10:55:15;;;;;;;20.35;8.48;;;14.10;84.50;;;;;;5114749;28;20081;-68
2022/03/30 10:57:50;;;;;;;34.45;8.35;;;14.20;91.80;;;;;;5114327;28;20036;-68
2022/03/30 11:00:34;;;;;;;16.80;7.30;;;14.10;99.10;;;;;;5113864;28;20032;-67
2022/03/30 11:03:06;;;;;;;22.05;7.30;;;;;;;;;;5115048;28;20039;-68
2022/03/30 11:05:33;;;;;;;22.95;6.47;;;;;;;;;;5114434;28;20040;-68
2022/03/30 11:08:00;;;;;;;16.88;7.85;;;;;;;;;;5113843;28;20024;-68
2022/03/30 11:10:27;;;;;;;21.55;7.00;;;;;;;;;;5114340;28;20044;-68
2022/03/30 11:13:05;;;;;;;21.75;7.18;;;;;;;;;;5114217;28;20028;-68
2022/03/30 11:15:31;;;;;;;19.02;6.82;;;;;;;;;;5114550;28;20054;-68
2022/03/30 11:18:17;;;;;;;18.70;6.82;;;;;;;;;;5114232;28;20032;-69
2022/03/30 11:21:03;;;;;;;18.92;6.68;;;;;;;;;;5114420;28;20495;-68
2022/03/30 11:23:29;;;;;;;31.60;7.10;;;;;;;;;;5112982;28;20479;-67
2022/03/30 11:25:56;;;;;;;23.08;6.75;;;;;;;;;;5114376;28;20038;-68
2022/03/30 11:28:35;;;;;;;19.27;6.90;;;;;;;;;;5111808;28;20035;-68
2022/03/30 11:31:03;;;;;;;29.67;8.98;;;;;;;;;;5111242;28;20043;-67
2022/03/30 11:33:34;;;;;;;28.13;8.23;;;;;;;;;;5111433;28;20055;-68
2022/03/30 11:36:02;;;;;;;27.88;10.35;;;;;;;;;;5113880;28;20028;-68
2022/03/30 11:38:37;;;;;;;29.13;11.73;;;;;;;;;;5114440;28;20717;-68
2022/03/30 11:41:08;;;;;;;27.15;11.68;;;;;;;;;;5113954;28;20036;-68
2022/03/30 11:46:31;;;;;;;25.75;13.02;;;13.60;99.30;;;;;;5114015;28;20034;-68
2022/03/30 11:49:02;;;;;;;23.38;12.05;;;;;;;;;;5113644;28;20075;-68
2022/03/30 11:51:28;;;;;;;21.35;12.35;;;;;;;;;;5113193;28;20046;-68
2022/03/30 11:54:10;;;;;;;18.55;8.50;;;;;;;;;;5113792;28;20499;-68
2022/03/30 11:56:36;;;;;;;27.13;8.18;;;;;;;;;;5113628;28;20045;-67
2022/03/30 11:59:02;;;;;;;21.27;9.70;;;;;;;;;;5113527;28;20118;-67
2022/03/30 12:01:29;;;;;;;26.38;11.38;;;;;;;;;;5113756;28;20077;-67
2022/03/30 12:03:56;;;;;;;23.17;11.27;;;;;;;;;;5113629;28;20031;-68
2022/03/30 12:06:21;;;;;;;34.65;16.33;;;13.40;99.90;;;;;;5113069;28;20074;-68
2022/03/30 12:08:49;;;;;;;33.47;16.80;;;13.40;90.90;;;;;;5113102;28;20449;-68
2022/03/30 12:11:22;;;;;;;23.20;9.77;;;13.40;91.00;;;;;;5112050;28;20125;-67
2022/03/30 12:13:52;;;;;;;20.95;8.82;;;13.40;91.30;;;;;;5109790;28;20036;-69
2022/03/30 12:16:20;;;;;;;26.63;9.98;;;13.40;91.30;;;;;;5110890;28;20058;-68
2022/03/30 12:18:50;;;;;;;22.85;9.95;;;13.30;90.90;;;;;;5109809;28;20545;-67
2022/03/30 12:21:32;;;;;;;26.88;11.10;;;13.30;90.90;;;;;;5112832;28;20047;-67
2022/03/30 12:24:03;;;;;;;22.70;9.88;;;13.30;91.10;;;;;;5120172;28;20050;-67
2022/03/30 12:26:31;;;;;;;24.80;10.23;;;13.30;91.20;;;;;;5119925;28;20456;-68
2022/03/30 12:29:05;;;;;;;28.75;14.93;;;13.30;91.50;;;;;;5121632;28;20039;-67
2022/03/30 12:31:39;;;;;;;27.55;12.10;;;13.40;91.60;;;;;;5120509;28;20035;-67
2022/03/30 12:34:09;;;;;;;29.50;10.68;;;13.40;91.90;;;;;;5116751;27;20046;-67
2022/03/30 12:36:43;;;;;;;16.98;8.60;;;13.40;91.70;;;;;;5115729;28;20027;-67
2022/03/30 12:39:19;;;;;;;21.45;9.38;;;13.40;91.60;;;;;;5117072;28;20066;-67
2022/03/30 12:42:18;;;;;;;24.58;8.63;;;13.40;91.40;;;;;;5116902;28;20036;-68
2022/03/30 12:44:48;;;;;;;18.92;8.63;;;13.40;91.60;;;;;;5111232;28;20119;-67
2022/03/30 12:47:16;;;;;;;19.27;8.02;;;13.40;91.10;;;;;;5117151;28;20089;-67
2022/03/30 12:49:43;;;;;;;16.45;7.90;;;13.40;90.60;;;;;;5117230;28;20484;-67
2022/03/30 12:52:16;;;;;;;21.98;9.15;;;13.40;90.50;;;;;;5117144;28;20027;-65
2022/03/30 12:54:45;;;;;;;22.83;11.23;;;13.40;90.80;;;;;;5117220;28;20035;-66
2022/03/30 12:57:12;;;;;;;22.92;10.00;;;13.40;91.20;;;;;;5117062;28;20085;-67
2022/03/30 12:59:40;;;;;;;21.25;9.82;;;13.30;91.80;;;;;;5116884;28;20031;-66
2022/03/30 13:02:20;;;;;;;22.88;9.73;;;13.30;91.70;;;;;;5116975;28;20430;-66
2022/03/30 13:04:57;;;;;;;23.00;9.52;;;13.30;91.90;;;;;;5116797;28;20035;-67